Terminal Aerodrome Forecast
Issued by NWS

Home | Current Version | Previous Version | Graphics & Text | Print | Product List | Glossary On
Versions: 1 2 3 4 5 6 7 8 9 10 11 12 13 14 15 16 17 18 19 20 21
000
FTUS43 KLOT 252336
TAFGYY
TAF
KGYY 252336Z 2600/2624 17011KT P6SM VCTS SCT020CB BKN050
      TEMPO 2600/2602 4SM TSRA SCT030 OVC040CB
     FM260200 18008KT P6SM SCT025 BKN120 BKN250 PROB30 2612/2615 5SM
      -TSRA BR OVC040CB
     FM261500 22012G17KT P6SM SCT035 BKN250=

USA.gov is the U.S. government's official web portal to all federal, state and local government web resources and services.